Hauptseite
METAR-TAF:

METAR-TAF

Flughäfen :

Flughafen Donegal

Donegal, Irland

Breite: 55-02-39N, Länge: 8-20-28W, Höhe: 9 m

Beobachtung

Neuester Wetterbericht von vor 29 Minuten, um 07:30 UTC
Wind 6 kt aus Süd
Temperatur 11°C
Luftfeuchtigkeit 87%
Luftdruck 1029 hPa
Sichtweite 10 km oder mehr
Aufgelockert bewölkt in der Höhe von 1900 ft
Durchbrochene Bewölkung in der Höhe von 2400 ft

METAR: EIDL 180730Z 17006KT 9999 SCT019 BKN024 11/09 Q1029

Zeit: 08:59 (07:59 UTC)

Prognose

Neuester Wetterbericht von vor 2 Stunden und 59 Minuten, um 05:00 UTC
Gültige Prognose vom 18 um 06 UTC bis 18 um 15 UTC
Wind 5 kt aus Süd
Sichtweite 10 km oder mehr
Leicht bewölkt in der Höhe von 4000 ft

TAF: EIDL 180500Z 1806/1815 18005KT 9999 FEW040

Wetterbeobachtungen und Prognosen von mehr als 4000 Flughäfen (METAR und TAF Bericht).

Die verfügbaren Stationen werden durch gelbe und rote Markierungen auf der Karte dargestellt.

Führen Sie die Maus auf sie, um den Namen der Station zu sehen.

Darauf klicken, um die Beobachtung von Wetterbeobachtungen und Prognosen zu sehen.

Um die Karte zu ändern : klicken Sie auf den grünen Tasten mit einem schwarzen Kreuz Zum Vergrößern, auf den grünen Button mit einem Gedankenstrich zu verkleinern, oder auf die grünen Pfeile für benachbarte Karten.


METAR-TAF: